sensor_id;sensor_type;location;lat;lon;timestamp;temperature;humidity
20915;DHT22;10617;52.032;5.298;2024-02-26T00:01:58;6.20;99.90
20915;DHT22;10617;52.032;5.298;2024-02-26T00:06:01;6.10;99.90
20915;DHT22;10617;52.032;5.298;2024-02-26T00:10:04;6.10;99.90
20915;DHT22;10617;52.032;5.298;2024-02-26T00:14:06;6.10;99.90
20915;DHT22;10617;52.032;5.298;2024-02-26T00:18:08;6.10;99.90
20915;DHT22;10617;52.032;5.298;2024-02-26T00:22:10;6.10;99.90
20915;DHT22;10617;52.032;5.298;2024-02-26T00:26:12;6.10;99.90
20915;DHT22;10617;52.032;5.298;2024-02-26T00:30:14;6.00;99.90
20915;DHT22;10617;52.032;5.298;2024-02-26T00:34:16;6.00;99.90
20915;DHT22;10617;52.032;5.298;2024-02-26T00:38:40;6.00;99.90
20915;DHT22;10617;52.032;5.298;2024-02-26T00:42:42;6.00;99.90
20915;DHT22;10617;52.032;5.298;2024-02-26T00:46:47;6.00;99.90
20915;DHT22;10617;52.032;5.298;2024-02-26T00:50:49;6.00;99.90
20915;DHT22;10617;52.032;5.298;2024-02-26T00:54:51;6.00;99.90
20915;DHT22;10617;52.032;5.298;2024-02-26T00:58:53;6.00;99.90
20915;DHT22;10617;52.032;5.298;2024-02-26T01:02:54;6.00;99.90
20915;DHT22;10617;52.032;5.298;2024-02-26T01:06:56;6.00;99.90
20915;DHT22;10617;52.032;5.298;2024-02-26T01:15:57;6.00;99.90
20915;DHT22;10617;52.032;5.298;2024-02-26T01:19:59;6.00;99.90
20915;DHT22;10617;52.032;5.298;2024-02-26T01:24:01;6.00;99.90
20915;DHT22;10617;52.032;5.298;2024-02-26T01:28:03;6.00;99.90
20915;DHT22;10617;52.032;5.298;2024-02-26T01:32:05;6.00;99.90
20915;DHT22;10617;52.032;5.298;2024-02-26T01:36:07;6.00;99.90
20915;DHT22;10617;52.032;5.298;2024-02-26T01:40:09;6.00;99.90
20915;DHT22;10617;52.032;5.298;2024-02-26T01:44:12;6.00;99.90
20915;DHT22;10617;52.032;5.298;2024-02-26T01:48:15;6.00;99.90
20915;DHT22;10617;52.032;5.298;2024-02-26T01:52:17;6.00;99.90
20915;DHT22;10617;52.032;5.298;2024-02-26T01:56:21;6.00;99.90
20915;DHT22;10617;52.032;5.298;2024-02-26T02:00:23;6.00;99.90
20915;DHT22;10617;52.032;5.298;2024-02-26T02:04:25;6.10;99.90
20915;DHT22;10617;52.032;5.298;2024-02-26T02:08:27;6.10;99.90
20915;DHT22;10617;52.032;5.298;2024-02-26T02:12:30;6.10;99.90
20915;DHT22;10617;52.032;5.298;2024-02-26T02:16:34;6.10;99.90
20915;DHT22;10617;52.032;5.298;2024-02-26T02:20:36;6.10;99.90
20915;DHT22;10617;52.032;5.298;2024-02-26T02:24:38;6.10;99.90
20915;DHT22;10617;52.032;5.298;2024-02-26T02:28:40;6.10;99.90
20915;DHT22;10617;52.032;5.298;2024-02-26T02:32:42;6.10;99.90
20915;DHT22;10617;52.032;5.298;2024-02-26T02:37:03;6.10;99.90
20915;DHT22;10617;52.032;5.298;2024-02-26T02:41:05;6.10;99.90
20915;DHT22;10617;52.032;5.298;2024-02-26T02:45:07;6.00;99.90
20915;DHT22;10617;52.032;5.298;2024-02-26T02:49:09;6.00;99.90
20915;DHT22;10617;52.032;5.298;2024-02-26T02:53:14;6.00;99.90
20915;DHT22;10617;52.032;5.298;2024-02-26T02:57:17;6.00;99.90
20915;DHT22;10617;52.032;5.298;2024-02-26T03:01:19;6.00;99.90
20915;DHT22;10617;52.032;5.298;2024-02-26T03:05:43;6.00;99.90
20915;DHT22;10617;52.032;5.298;2024-02-26T03:09:45;6.00;99.90
20915;DHT22;10617;52.032;5.298;2024-02-26T03:13:47;6.00;99.90
20915;DHT22;10617;52.032;5.298;2024-02-26T03:17:48;5.90;99.90
20915;DHT22;10617;52.032;5.298;2024-02-26T03:21:50;6.00;99.90
20915;DHT22;10617;52.032;5.298;2024-02-26T03:25:52;5.90;99.90
20915;DHT22;10617;52.032;5.298;2024-02-26T03:29:54;5.90;99.90
20915;DHT22;10617;52.032;5.298;2024-02-26T03:33:56;5.90;99.90
20915;DHT22;10617;52.032;5.298;2024-02-26T03:37:58;5.90;99.90
20915;DHT22;10617;52.032;5.298;2024-02-26T03:42:00;5.90;99.90
20915;DHT22;10617;52.032;5.298;2024-02-26T03:46:02;5.90;99.90
20915;DHT22;10617;52.032;5.298;2024-02-26T03:50:04;5.90;99.90
20915;DHT22;10617;52.032;5.298;2024-02-26T03:54:06;5.90;99.90
20915;DHT22;10617;52.032;5.298;2024-02-26T03:58:08;5.90;99.90
20915;DHT22;10617;52.032;5.298;2024-02-26T04:02:10;5.90;99.90
20915;DHT22;10617;52.032;5.298;2024-02-26T04:06:12;5.90;99.90
20915;DHT22;10617;52.032;5.298;2024-02-26T04:15:02;5.80;99.90
20915;DHT22;10617;52.032;5.298;2024-02-26T04:19:04;5.80;99.90
20915;DHT22;10617;52.032;5.298;2024-02-26T04:23:06;5.80;99.90
20915;DHT22;10617;52.032;5.298;2024-02-26T04:27:08;5.80;99.90
20915;DHT22;10617;52.032;5.298;2024-02-26T04:31:10;5.80;99.90
20915;DHT22;10617;52.032;5.298;2024-02-26T04:35:12;5.80;99.90
20915;DHT22;10617;52.032;5.298;2024-02-26T04:39:13;5.80;99.90
20915;DHT22;10617;52.032;5.298;2024-02-26T04:43:15;5.80;99.90
20915;DHT22;10617;52.032;5.298;2024-02-26T04:47:19;5.70;99.90
20915;DHT22;10617;52.032;5.298;2024-02-26T04:51:21;5.70;99.90
20915;DHT22;10617;52.032;5.298;2024-02-26T04:55:23;5.70;99.90
20915;DHT22;10617;52.032;5.298;2024-02-26T04:59:25;5.70;99.90
20915;DHT22;10617;52.032;5.298;2024-02-26T05:03:27;5.70;99.90
20915;DHT22;10617;52.032;5.298;2024-02-26T05:07:29;5.70;99.90
20915;DHT22;10617;52.032;5.298;2024-02-26T05:11:31;5.70;99.90
20915;DHT22;10617;52.032;5.298;2024-02-26T05:15:33;5.70;99.90
20915;DHT22;10617;52.032;5.298;2024-02-26T05:19:34;5.70;99.90
20915;DHT22;10617;52.032;5.298;2024-02-26T05:23:36;5.70;99.90
20915;DHT22;10617;52.032;5.298;2024-02-26T05:27:38;5.70;99.90
20915;DHT22;10617;52.032;5.298;2024-02-26T05:31:42;5.60;99.90
20915;DHT22;10617;52.032;5.298;2024-02-26T05:35:44;5.70;99.90
20915;DHT22;10617;52.032;5.298;2024-02-26T05:39:46;5.70;99.90
20915;DHT22;10617;52.032;5.298;2024-02-26T05:43:49;5.70;99.90
20915;DHT22;10617;52.032;5.298;2024-02-26T05:47:51;5.70;99.90
20915;DHT22;10617;52.032;5.298;2024-02-26T05:51:53;5.70;99.90
20915;DHT22;10617;52.032;5.298;2024-02-26T05:55:55;5.70;99.90
20915;DHT22;10617;52.032;5.298;2024-02-26T05:59:57;5.70;99.90
20915;DHT22;10617;52.032;5.298;2024-02-26T06:04:02;5.70;99.90
20915;DHT22;10617;52.032;5.298;2024-02-26T06:08:04;5.70;99.90
20915;DHT22;10617;52.032;5.298;2024-02-26T06:12:07;5.80;99.90
20915;DHT22;10617;52.032;5.298;2024-02-26T06:16:09;5.80;99.90
20915;DHT22;10617;52.032;5.298;2024-02-26T06:20:11;5.80;99.90
20915;DHT22;10617;52.032;5.298;2024-02-26T06:24:14;5.80;99.90
20915;DHT22;10617;52.032;5.298;2024-02-26T06:28:16;5.80;99.90
20915;DHT22;10617;52.032;5.298;2024-02-26T06:32:18;5.70;99.90
20915;DHT22;10617;52.032;5.298;2024-02-26T06:36:20;5.70;99.90
20915;DHT22;10617;52.032;5.298;2024-02-26T06:40:21;5.70;99.90
20915;DHT22;10617;52.032;5.298;2024-02-26T06:44:23;5.70;99.90
20915;DHT22;10617;52.032;5.298;2024-02-26T06:48:26;5.70;99.90
20915;DHT22;10617;52.032;5.298;2024-02-26T06:52:28;5.70;99.90
20915;DHT22;10617;52.032;5.298;2024-02-26T06:56:30;5.80;99.90
20915;DHT22;10617;52.032;5.298;2024-02-26T07:00:32;5.80;99.90
20915;DHT22;10617;52.032;5.298;2024-02-26T07:04:34;5.80;99.90
20915;DHT22;10617;52.032;5.298;2024-02-26T07:08:36;5.80;99.90
20915;DHT22;10617;52.032;5.298;2024-02-26T07:12:38;5.80;99.90
20915;DHT22;10617;52.032;5.298;2024-02-26T07:16:40;5.80;99.90
20915;DHT22;10617;52.032;5.298;2024-02-26T07:20:42;5.80;99.90
20915;DHT22;10617;52.032;5.298;2024-02-26T07:24:44;5.80;99.90
20915;DHT22;10617;52.032;5.298;2024-02-26T07:28:46;5.80;99.90
20915;DHT22;10617;52.032;5.298;2024-02-26T07:32:48;5.80;99.90
20915;DHT22;10617;52.032;5.298;2024-02-26T07:36:52;5.80;99.90
20915;DHT22;10617;52.032;5.298;2024-02-26T07:40:53;5.80;99.90
20915;DHT22;10617;52.032;5.298;2024-02-26T07:45:04;5.80;99.90
20915;DHT22;10617;52.032;5.298;2024-02-26T07:49:06;5.90;99.90
20915;DHT22;10617;52.032;5.298;2024-02-26T07:53:07;5.90;99.90
20915;DHT22;10617;52.032;5.298;2024-02-26T07:57:09;5.90;99.90
20915;DHT22;10617;52.032;5.298;2024-02-26T08:01:13;5.90;99.90
20915;DHT22;10617;52.032;5.298;2024-02-26T08:05:16;5.90;99.90
20915;DHT22;10617;52.032;5.298;2024-02-26T08:09:18;5.90;99.90
20915;DHT22;10617;52.032;5.298;2024-02-26T08:13:19;5.90;99.90
20915;DHT22;10617;52.032;5.298;2024-02-26T08:17:21;6.00;99.90
20915;DHT22;10617;52.032;5.298;2024-02-26T08:21:23;5.90;99.90
20915;DHT22;10617;52.032;5.298;2024-02-26T08:25:25;6.00;99.90
20915;DHT22;10617;52.032;5.298;2024-02-26T08:29:27;6.00;99.90
20915;DHT22;10617;52.032;5.298;2024-02-26T08:33:29;6.00;99.90
20915;DHT22;10617;52.032;5.298;2024-02-26T08:37:31;6.00;99.90
20915;DHT22;10617;52.032;5.298;2024-02-26T08:41:33;6.10;99.90
20915;DHT22;10617;52.032;5.298;2024-02-26T08:45:35;6.10;99.90
20915;DHT22;10617;52.032;5.298;2024-02-26T08:49:37;6.20;99.90
20915;DHT22;10617;52.032;5.298;2024-02-26T08:53:39;6.20;99.90
20915;DHT22;10617;52.032;5.298;2024-02-26T08:57:44;6.20;99.90
20915;DHT22;10617;52.032;5.298;2024-02-26T09:01:46;6.20;99.90
20915;DHT22;10617;52.032;5.298;2024-02-26T09:05:48;6.20;99.90
20915;DHT22;10617;52.032;5.298;2024-02-26T09:09:50;6.10;99.90
20915;DHT22;10617;52.032;5.298;2024-02-26T09:13:52;6.10;99.90
20915;DHT22;10617;52.032;5.298;2024-02-26T09:17:54;6.10;99.90
20915;DHT22;10617;52.032;5.298;2024-02-26T09:21:56;6.10;99.90
20915;DHT22;10617;52.032;5.298;2024-02-26T09:25:59;6.10;99.90
20915;DHT22;10617;52.032;5.298;2024-02-26T09:30:01;6.20;99.90
20915;DHT22;10617;52.032;5.298;2024-02-26T09:34:03;6.20;99.90
20915;DHT22;10617;52.032;5.298;2024-02-26T09:38:06;6.10;99.90
20915;DHT22;10617;52.032;5.298;2024-02-26T09:42:11;6.10;99.90
20915;DHT22;10617;52.032;5.298;2024-02-26T09:46:14;6.20;99.90
20915;DHT22;10617;52.032;5.298;2024-02-26T09:50:17;6.20;99.90
20915;DHT22;10617;52.032;5.298;2024-02-26T09:54:25;6.10;99.90
20915;DHT22;10617;52.032;5.298;2024-02-26T09:58:30;6.10;99.90
20915;DHT22;10617;52.032;5.298;2024-02-26T10:02:33;6.10;99.90
20915;DHT22;10617;52.032;5.298;2024-02-26T10:06:36;6.10;99.90
20915;DHT22;10617;52.032;5.298;2024-02-26T10:10:39;6.20;99.90
20915;DHT22;10617;52.032;5.298;2024-02-26T10:14:40;6.20;99.90
20915;DHT22;10617;52.032;5.298;2024-02-26T10:18:46;6.20;99.90
20915;DHT22;10617;52.032;5.298;2024-02-26T10:22:52;6.20;99.90
20915;DHT22;10617;52.032;5.298;2024-02-26T10:26:55;6.20;99.90
20915;DHT22;10617;52.032;5.298;2024-02-26T10:30:57;6.20;99.90
20915;DHT22;10617;52.032;5.298;2024-02-26T10:34:59;6.20;99.90
20915;DHT22;10617;52.032;5.298;2024-02-26T10:39:05;6.20;99.90
20915;DHT22;10617;52.032;5.298;2024-02-26T10:43:07;6.20;99.90
20915;DHT22;10617;52.032;5.298;2024-02-26T10:47:09;6.20;99.90
20915;DHT22;10617;52.032;5.298;2024-02-26T10:51:12;6.20;99.90
20915;DHT22;10617;52.032;5.298;2024-02-26T10:55:16;6.20;99.90
20915;DHT22;10617;52.032;5.298;2024-02-26T10:59:22;6.30;99.90
20915;DHT22;10617;52.032;5.298;2024-02-26T11:03:25;6.30;99.90
20915;DHT22;10617;52.032;5.298;2024-02-26T11:07:27;6.40;99.90
20915;DHT22;10617;52.032;5.298;2024-02-26T11:11:32;6.50;99.90
20915;DHT22;10617;52.032;5.298;2024-02-26T11:15:36;6.50;99.90
20915;DHT22;10617;52.032;5.298;2024-02-26T11:19:39;6.60;99.90
20915;DHT22;10617;52.032;5.298;2024-02-26T11:23:43;6.60;99.90
20915;DHT22;10617;52.032;5.298;2024-02-26T11:27:58;6.60;99.90
20915;DHT22;10617;52.032;5.298;2024-02-26T11:32:03;6.60;99.90
20915;DHT22;10617;52.032;5.298;2024-02-26T11:36:12;6.60;99.90
20915;DHT22;10617;52.032;5.298;2024-02-26T11:40:15;6.60;99.90
20915;DHT22;10617;52.032;5.298;2024-02-26T11:44:29;6.60;99.90
20915;DHT22;10617;52.032;5.298;2024-02-26T11:48:32;6.60;99.90
20915;DHT22;10617;52.032;5.298;2024-02-26T11:52:34;6.60;99.90
20915;DHT22;10617;52.032;5.298;2024-02-26T11:56:40;6.60;99.90
20915;DHT22;10617;52.032;5.298;2024-02-26T12:00:42;6.60;99.90
20915;DHT22;10617;52.032;5.298;2024-02-26T12:04:44;6.60;99.90
20915;DHT22;10617;52.032;5.298;2024-02-26T12:08:46;6.60;99.90
20915;DHT22;10617;52.032;5.298;2024-02-26T12:12:49;6.60;99.90
20915;DHT22;10617;52.032;5.298;2024-02-26T12:16:52;6.70;99.90
20915;DHT22;10617;52.032;5.298;2024-02-26T12:21:04;6.70;99.90
20915;DHT22;10617;52.032;5.298;2024-02-26T12:25:09;6.80;99.90
20915;DHT22;10617;52.032;5.298;2024-02-26T12:29:11;6.80;99.90
20915;DHT22;10617;52.032;5.298;2024-02-26T12:33:13;6.80;99.90
20915;DHT22;10617;52.032;5.298;2024-02-26T12:37:16;6.80;99.90
20915;DHT22;10617;52.032;5.298;2024-02-26T12:41:18;6.90;99.90
20915;DHT22;10617;52.032;5.298;2024-02-26T12:45:20;6.90;99.90
20915;DHT22;10617;52.032;5.298;2024-02-26T12:49:22;6.90;99.90
20915;DHT22;10617;52.032;5.298;2024-02-26T12:53:25;6.90;99.90
20915;DHT22;10617;52.032;5.298;2024-02-26T12:57:27;7.00;99.90
20915;DHT22;10617;52.032;5.298;2024-02-26T13:01:31;6.90;99.90
20915;DHT22;10617;52.032;5.298;2024-02-26T13:05:34;6.90;99.90
20915;DHT22;10617;52.032;5.298;2024-02-26T13:09:36;6.90;99.90
20915;DHT22;10617;52.032;5.298;2024-02-26T13:13:38;7.00;99.90
20915;DHT22;10617;52.032;5.298;2024-02-26T13:17:40;7.00;99.90
20915;DHT22;10617;52.032;5.298;2024-02-26T13:21:42;7.10;99.90
20915;DHT22;10617;52.032;5.298;2024-02-26T13:25:43;7.10;99.90
20915;DHT22;10617;52.032;5.298;2024-02-26T13:29:46;7.10;99.90
20915;DHT22;10617;52.032;5.298;2024-02-26T13:33:48;7.10;99.90
20915;DHT22;10617;52.032;5.298;2024-02-26T13:37:51;7.20;99.90
20915;DHT22;10617;52.032;5.298;2024-02-26T13:41:53;7.20;99.90
20915;DHT22;10617;52.032;5.298;2024-02-26T13:45:56;7.20;99.90
20915;DHT22;10617;52.032;5.298;2024-02-26T13:49:58;7.20;99.90
20915;DHT22;10617;52.032;5.298;2024-02-26T13:54:00;7.30;99.90
20915;DHT22;10617;52.032;5.298;2024-02-26T13:58:02;7.20;99.90
20915;DHT22;10617;52.032;5.298;2024-02-26T14:02:04;7.20;99.90
20915;DHT22;10617;52.032;5.298;2024-02-26T14:06:06;7.20;99.90
20915;DHT22;10617;52.032;5.298;2024-02-26T14:10:11;7.20;99.90
20915;DHT22;10617;52.032;5.298;2024-02-26T14:14:14;7.20;99.90
20915;DHT22;10617;52.032;5.298;2024-02-26T14:18:16;7.20;99.90
20915;DHT22;10617;52.032;5.298;2024-02-26T14:22:18;7.20;99.90
20915;DHT22;10617;52.032;5.298;2024-02-26T14:26:20;7.30;99.90
20915;DHT22;10617;52.032;5.298;2024-02-26T14:30:22;7.30;99.90
20915;DHT22;10617;52.032;5.298;2024-02-26T14:34:24;7.30;99.90
20915;DHT22;10617;52.032;5.298;2024-02-26T14:38:26;7.30;99.90
20915;DHT22;10617;52.032;5.298;2024-02-26T14:42:28;7.30;99.90
20915;DHT22;10617;52.032;5.298;2024-02-26T14:46:30;7.40;99.90
20915;DHT22;10617;52.032;5.298;2024-02-26T14:50:32;7.40;99.90
20915;DHT22;10617;52.032;5.298;2024-02-26T14:54:34;7.40;99.90
20915;DHT22;10617;52.032;5.298;2024-02-26T14:58:40;7.40;99.90
20915;DHT22;10617;52.032;5.298;2024-02-26T15:02:42;7.40;99.90
20915;DHT22;10617;52.032;5.298;2024-02-26T15:06:44;7.40;99.90
20915;DHT22;10617;52.032;5.298;2024-02-26T15:10:46;7.40;99.90
20915;DHT22;10617;52.032;5.298;2024-02-26T15:14:51;7.30;99.90
20915;DHT22;10617;52.032;5.298;2024-02-26T15:18:52;7.30;99.90
20915;DHT22;10617;52.032;5.298;2024-02-26T15:22:54;7.30;99.90
20915;DHT22;10617;52.032;5.298;2024-02-26T15:26:56;7.30;99.90
20915;DHT22;10617;52.032;5.298;2024-02-26T15:30:58;7.20;99.90
20915;DHT22;10617;52.032;5.298;2024-02-26T15:35:00;7.20;99.90
20915;DHT22;10617;52.032;5.298;2024-02-26T15:39:02;7.20;99.90
20915;DHT22;10617;52.032;5.298;2024-02-26T15:43:05;7.20;99.90
20915;DHT22;10617;52.032;5.298;2024-02-26T15:47:07;7.20;99.90
20915;DHT22;10617;52.032;5.298;2024-02-26T15:51:18;7.20;99.90
20915;DHT22;10617;52.032;5.298;2024-02-26T15:55:21;7.20;99.90
20915;DHT22;10617;52.032;5.298;2024-02-26T15:59:23;7.20;99.90
20915;DHT22;10617;52.032;5.298;2024-02-26T16:03:26;7.30;99.90
20915;DHT22;10617;52.032;5.298;2024-02-26T16:07:32;7.30;99.90
20915;DHT22;10617;52.032;5.298;2024-02-26T16:11:36;7.30;99.90
20915;DHT22;10617;52.032;5.298;2024-02-26T16:15:40;7.30;99.90
20915;DHT22;10617;52.032;5.298;2024-02-26T16:19:44;7.20;99.90
20915;DHT22;10617;52.032;5.298;2024-02-26T16:23:46;7.20;99.90
20915;DHT22;10617;52.032;5.298;2024-02-26T16:27:48;7.10;99.90
20915;DHT22;10617;52.032;5.298;2024-02-26T16:31:50;7.10;99.90
20915;DHT22;10617;52.032;5.298;2024-02-26T16:35:52;7.10;99.90
20915;DHT22;10617;52.032;5.298;2024-02-26T16:39:58;7.00;99.90
20915;DHT22;10617;52.032;5.298;2024-02-26T16:44:01;7.00;99.90
20915;DHT22;10617;52.032;5.298;2024-02-26T16:48:03;6.90;99.90
20915;DHT22;10617;52.032;5.298;2024-02-26T16:52:05;6.80;99.90
20915;DHT22;10617;52.032;5.298;2024-02-26T16:56:11;6.70;99.90
20915;DHT22;10617;52.032;5.298;2024-02-26T17:00:13;6.50;99.90
20915;DHT22;10617;52.032;5.298;2024-02-26T17:04:17;6.50;99.90
20915;DHT22;10617;52.032;5.298;2024-02-26T17:08:19;6.40;99.90
20915;DHT22;10617;52.032;5.298;2024-02-26T17:12:22;6.30;99.90
20915;DHT22;10617;52.032;5.298;2024-02-26T17:16:24;6.20;99.90
20915;DHT22;10617;52.032;5.298;2024-02-26T17:20:26;6.20;99.90
20915;DHT22;10617;52.032;5.298;2024-02-26T17:24:28;6.20;99.90
20915;DHT22;10617;52.032;5.298;2024-02-26T17:28:30;6.10;99.90
20915;DHT22;10617;52.032;5.298;2024-02-26T17:32:32;6.10;99.90
20915;DHT22;10617;52.032;5.298;2024-02-26T17:36:35;6.00;99.90
20915;DHT22;10617;52.032;5.298;2024-02-26T17:40:37;6.00;99.90
20915;DHT22;10617;52.032;5.298;2024-02-26T17:44:39;6.00;99.90
20915;DHT22;10617;52.032;5.298;2024-02-26T17:48:41;5.90;99.90
20915;DHT22;10617;52.032;5.298;2024-02-26T17:52:44;5.90;99.90
20915;DHT22;10617;52.032;5.298;2024-02-26T17:56:46;5.90;99.90
20915;DHT22;10617;52.032;5.298;2024-02-26T18:00:48;5.90;99.90
20915;DHT22;10617;52.032;5.298;2024-02-26T18:04:50;5.80;99.90
20915;DHT22;10617;52.032;5.298;2024-02-26T18:08:52;5.80;99.90
20915;DHT22;10617;52.032;5.298;2024-02-26T18:12:54;5.70;99.90
20915;DHT22;10617;52.032;5.298;2024-02-26T18:17:00;5.70;99.90
20915;DHT22;10617;52.032;5.298;2024-02-26T18:21:01;5.60;99.90
20915;DHT22;10617;52.032;5.298;2024-02-26T18:25:04;5.60;99.90
20915;DHT22;10617;52.032;5.298;2024-02-26T18:29:06;5.50;99.90
20915;DHT22;10617;52.032;5.298;2024-02-26T18:33:08;5.50;99.90
20915;DHT22;10617;52.032;5.298;2024-02-26T18:37:10;5.40;99.90
20915;DHT22;10617;52.032;5.298;2024-02-26T18:41:23;5.40;99.90
20915;DHT22;10617;52.032;5.298;2024-02-26T18:45:27;5.40;99.90
20915;DHT22;10617;52.032;5.298;2024-02-26T18:49:30;5.30;99.90
20915;DHT22;10617;52.032;5.298;2024-02-26T18:53:34;5.30;99.90
20915;DHT22;10617;52.032;5.298;2024-02-26T18:57:36;5.30;99.90
20915;DHT22;10617;52.032;5.298;2024-02-26T19:01:44;5.30;99.90
20915;DHT22;10617;52.032;5.298;2024-02-26T19:05:46;5.30;99.90
20915;DHT22;10617;52.032;5.298;2024-02-26T19:09:47;5.20;99.90
20915;DHT22;10617;52.032;5.298;2024-02-26T19:13:49;5.20;99.90
20915;DHT22;10617;52.032;5.298;2024-02-26T19:17:51;5.20;99.90
20915;DHT22;10617;52.032;5.298;2024-02-26T19:21:56;5.20;99.90
20915;DHT22;10617;52.032;5.298;2024-02-26T19:25:59;5.20;99.90
20915;DHT22;10617;52.032;5.298;2024-02-26T19:30:01;5.20;99.90
20915;DHT22;10617;52.032;5.298;2024-02-26T19:34:05;5.10;99.90
20915;DHT22;10617;52.032;5.298;2024-02-26T19:38:07;5.10;99.90
20915;DHT22;10617;52.032;5.298;2024-02-26T19:42:09;5.10;99.90
20915;DHT22;10617;52.032;5.298;2024-02-26T19:46:14;5.10;99.90
20915;DHT22;10617;52.032;5.298;2024-02-26T19:55:02;5.00;99.90
20915;DHT22;10617;52.032;5.298;2024-02-26T19:59:05;5.00;99.90
20915;DHT22;10617;52.032;5.298;2024-02-26T20:03:06;5.00;99.90
20915;DHT22;10617;52.032;5.298;2024-02-26T20:07:08;5.00;99.90
20915;DHT22;10617;52.032;5.298;2024-02-26T20:11:15;5.00;99.90
20915;DHT22;10617;52.032;5.298;2024-02-26T20:15:18;5.00;99.90
20915;DHT22;10617;52.032;5.298;2024-02-26T20:19:20;5.00;99.90
20915;DHT22;10617;52.032;5.298;2024-02-26T20:23:22;5.00;99.90
20915;DHT22;10617;52.032;5.298;2024-02-26T20:27:24;5.00;99.90
20915;DHT22;10617;52.032;5.298;2024-02-26T20:31:26;5.00;99.90
20915;DHT22;10617;52.032;5.298;2024-02-26T20:35:27;5.00;99.90
20915;DHT22;10617;52.032;5.298;2024-02-26T20:39:29;5.00;99.90
20915;DHT22;10617;52.032;5.298;2024-02-26T20:43:31;5.00;99.90
20915;DHT22;10617;52.032;5.298;2024-02-26T20:47:35;5.00;99.90
20915;DHT22;10617;52.032;5.298;2024-02-26T20:51:54;5.00;99.90
20915;DHT22;10617;52.032;5.298;2024-02-26T20:55:57;5.00;99.90
20915;DHT22;10617;52.032;5.298;2024-02-26T20:59:58;5.00;99.90
20915;DHT22;10617;52.032;5.298;2024-02-26T21:04:00;4.90;99.90
20915;DHT22;10617;52.032;5.298;2024-02-26T21:08:03;4.90;99.90
20915;DHT22;10617;52.032;5.298;2024-02-26T21:12:09;5.00;99.90
20915;DHT22;10617;52.032;5.298;2024-02-26T21:16:12;4.90;99.90
20915;DHT22;10617;52.032;5.298;2024-02-26T21:20:15;5.00;99.90
20915;DHT22;10617;52.032;5.298;2024-02-26T21:24:20;5.00;99.90
20915;DHT22;10617;52.032;5.298;2024-02-26T21:28:22;5.00;99.90
20915;DHT22;10617;52.032;5.298;2024-02-26T21:32:27;5.00;99.90
20915;DHT22;10617;52.032;5.298;2024-02-26T21:36:31;5.10;99.90
20915;DHT22;10617;52.032;5.298;2024-02-26T21:40:34;5.10;99.90
20915;DHT22;10617;52.032;5.298;2024-02-26T21:44:35;5.10;99.90
20915;DHT22;10617;52.032;5.298;2024-02-26T21:48:38;5.00;99.90
20915;DHT22;10617;52.032;5.298;2024-02-26T21:52:41;5.00;99.90
20915;DHT22;10617;52.032;5.298;2024-02-26T21:56:43;5.00;99.90
20915;DHT22;10617;52.032;5.298;2024-02-26T22:00:45;5.00;99.90
20915;DHT22;10617;52.032;5.298;2024-02-26T22:04:47;5.00;99.90
20915;DHT22;10617;52.032;5.298;2024-02-26T22:08:49;5.00;99.90
20915;DHT22;10617;52.032;5.298;2024-02-26T22:12:51;5.10;99.90
20915;DHT22;10617;52.032;5.298;2024-02-26T22:16:53;5.10;99.90
20915;DHT22;10617;52.032;5.298;2024-02-26T22:20:55;5.10;99.90
20915;DHT22;10617;52.032;5.298;2024-02-26T22:24:56;5.10;99.90
20915;DHT22;10617;52.032;5.298;2024-02-26T22:28:58;5.10;99.90
20915;DHT22;10617;52.032;5.298;2024-02-26T22:33:00;5.10;99.90
20915;DHT22;10617;52.032;5.298;2024-02-26T22:37:02;5.10;99.90
20915;DHT22;10617;52.032;5.298;2024-02-26T22:41:04;5.10;99.90
20915;DHT22;10617;52.032;5.298;2024-02-26T22:45:09;5.10;99.90
20915;DHT22;10617;52.032;5.298;2024-02-26T22:49:11;5.10;99.90
20915;DHT22;10617;52.032;5.298;2024-02-26T22:53:13;5.10;99.90
20915;DHT22;10617;52.032;5.298;2024-02-26T22:57:14;5.10;99.90
20915;DHT22;10617;52.032;5.298;2024-02-26T23:01:16;5.00;99.90
20915;DHT22;10617;52.032;5.298;2024-02-26T23:05:21;5.00;99.90
20915;DHT22;10617;52.032;5.298;2024-02-26T23:09:23;5.00;99.90
20915;DHT22;10617;52.032;5.298;2024-02-26T23:13:25;4.90;99.90
20915;DHT22;10617;52.032;5.298;2024-02-26T23:17:27;4.90;99.90
20915;DHT22;10617;52.032;5.298;2024-02-26T23:21:29;4.80;99.90
20915;DHT22;10617;52.032;5.298;2024-02-26T23:25:31;4.80;99.90
20915;DHT22;10617;52.032;5.298;2024-02-26T23:29:33;4.80;99.90
20915;DHT22;10617;52.032;5.298;2024-02-26T23:33:35;4.80;99.90
20915;DHT22;10617;52.032;5.298;2024-02-26T23:37:37;4.80;99.90
20915;DHT22;10617;52.032;5.298;2024-02-26T23:41:39;4.80;99.90
20915;DHT22;10617;52.032;5.298;2024-02-26T23:45:41;4.80;99.90
20915;DHT22;10617;52.032;5.298;2024-02-26T23:49:42;4.90;99.90
20915;DHT22;10617;52.032;5.298;2024-02-26T23:53:44;4.90;99.90
20915;DHT22;10617;52.032;5.298;2024-02-26T23:57:46;4.90;99.90
